sensor_id;sensor_type;location;lat;lon;timestamp;pressure;altitude;pressure_sealevel;temperature;humidity
23679;BME280;12016;51.668;6.874;2022-09-06T00:00:05;101273.28;;;24.11;64.62
23679;BME280;12016;51.668;6.874;2022-09-06T00:06:22;101257.56;;;24.10;63.99
23679;BME280;12016;51.668;6.874;2022-09-06T00:12:38;101257.09;;;24.11;64.34
23679;BME280;12016;51.668;6.874;2022-09-06T00:18:45;101259.28;;;24.07;65.32
23679;BME280;12016;51.668;6.874;2022-09-06T00:25:01;101279.22;;;24.04;65.60
23679;BME280;12016;51.668;6.874;2022-09-06T00:31:19;101272.09;;;23.87;66.12
23679;BME280;12016;51.668;6.874;2022-09-06T00:37:36;101280.34;;;23.94;65.07
23679;BME280;12016;51.668;6.874;2022-09-06T00:43:40;101271.06;;;23.93;64.42
23679;BME280;12016;51.668;6.874;2022-09-06T00:49:58;101259.53;;;24.00;64.13
23679;BME280;12016;51.668;6.874;2022-09-06T00:56:15;101253.28;;;24.05;64.86
23679;BME280;12016;51.668;6.874;2022-09-06T01:02:18;101253.75;;;24.04;65.67
23679;BME280;12016;51.668;6.874;2022-09-06T01:15:12;101269.44;;;23.71;67.07
23679;BME280;12016;51.668;6.874;2022-09-06T01:21:39;101290.25;;;23.18;68.18
23679;BME280;12016;51.668;6.874;2022-09-06T01:34:45;101289.91;;;23.41;67.24
23679;BME280;12016;51.668;6.874;2022-09-06T01:40:49;101305.94;;;23.44;67.14
23679;BME280;12016;51.668;6.874;2022-09-06T01:53:55;101332.97;;;23.20;70.81
23679;BME280;12016;51.668;6.874;2022-09-06T02:00:30;101332.75;;;23.27;71.56
23679;BME280;12016;51.668;6.874;2022-09-06T02:06:44;101350.03;;;23.29;73.52
23679;BME280;12016;51.668;6.874;2022-09-06T02:12:51;101348.22;;;23.35;73.51
23679;BME280;12016;51.668;6.874;2022-09-06T02:19:01;101335.34;;;23.59;73.07
23679;BME280;12016;51.668;6.874;2022-09-06T02:25:26;101333.84;;;23.67;73.75
23679;BME280;12016;51.668;6.874;2022-09-06T02:31:50;101331.13;;;23.63;74.39
23679;BME280;12016;51.668;6.874;2022-09-06T02:38:10;101321.28;;;23.68;74.45
23679;BME280;12016;51.668;6.874;2022-09-06T02:44:53;101317.63;;;23.80;74.18
23679;BME280;12016;51.668;6.874;2022-09-06T02:51:11;101310.13;;;23.86;76.37
23679;BME280;12016;51.668;6.874;2022-09-06T02:57:15;101297.13;;;23.88;78.15
23679;BME280;12016;51.668;6.874;2022-09-06T03:03:32;101273.03;;;23.84;80.78
23679;BME280;12016;51.668;6.874;2022-09-06T03:09:42;101276.59;;;23.75;80.87
23679;BME280;12016;51.668;6.874;2022-09-06T03:15:52;101286.41;;;23.71;83.15
23679;BME280;12016;51.668;6.874;2022-09-06T03:21:55;101284.16;;;23.66;84.57
23679;BME280;12016;51.668;6.874;2022-09-06T03:28:04;101277.13;;;23.11;88.40
23679;BME280;12016;51.668;6.874;2022-09-06T03:34:07;101255.31;;;23.37;87.92
23679;BME280;12016;51.668;6.874;2022-09-06T03:40:16;101240.25;;;23.40;90.46
23679;BME280;12016;51.668;6.874;2022-09-06T03:46:18;101201.69;;;23.46;90.99
23679;BME280;12016;51.668;6.874;2022-09-06T03:52:23;101200.78;;;23.49;90.48
23679;BME280;12016;51.668;6.874;2022-09-06T03:58:30;101244.38;;;23.26;90.01
23679;BME280;12016;51.668;6.874;2022-09-06T04:04:33;101238.13;;;23.19;90.67
23679;BME280;12016;51.668;6.874;2022-09-06T04:10:35;101240.19;;;23.31;91.24
23679;BME280;12016;51.668;6.874;2022-09-06T04:16:41;101283.22;;;22.84;92.79
23679;BME280;12016;51.668;6.874;2022-09-06T04:22:44;101276.00;;;22.96;92.89
23679;BME280;12016;51.668;6.874;2022-09-06T04:28:47;101297.13;;;22.38;97.78
23679;BME280;12016;51.668;6.874;2022-09-06T04:34:50;101296.81;;;22.48;96.10
23679;BME280;12016;51.668;6.874;2022-09-06T04:40:52;101282.47;;;22.84;93.95
23679;BME280;12016;51.668;6.874;2022-09-06T04:47:26;101285.06;;;23.04;93.35
23679;BME280;12016;51.668;6.874;2022-09-06T04:53:30;101281.06;;;23.14;92.96
23679;BME280;12016;51.668;6.874;2022-09-06T04:59:47;101291.72;;;23.10;93.34
23679;BME280;12016;51.668;6.874;2022-09-06T05:05:49;101288.44;;;23.11;94.25
23679;BME280;12016;51.668;6.874;2022-09-06T05:11:52;101298.81;;;23.14;94.45
23679;BME280;12016;51.668;6.874;2022-09-06T05:18:02;101308.66;;;23.10;97.22
23679;BME280;12016;51.668;6.874;2022-09-06T05:24:05;101308.31;;;23.08;99.48
23679;BME280;12016;51.668;6.874;2022-09-06T05:30:14;101296.09;;;23.11;95.57
23679;BME280;12016;51.668;6.874;2022-09-06T05:36:18;101307.75;;;23.13;95.33
23679;BME280;12016;51.668;6.874;2022-09-06T05:42:20;101324.16;;;23.05;96.08
23679;BME280;12016;51.668;6.874;2022-09-06T05:48:24;101323.69;;;23.07;96.56
23679;BME280;12016;51.668;6.874;2022-09-06T05:54:27;101324.13;;;22.93;97.66
23679;BME280;12016;51.668;6.874;2022-09-06T06:00:30;101317.47;;;22.87;99.31
23679;BME280;12016;51.668;6.874;2022-09-06T06:06:33;101325.81;;;23.03;98.82
23679;BME280;12016;51.668;6.874;2022-09-06T06:12:35;101325.25;;;23.20;97.16
23679;BME280;12016;51.668;6.874;2022-09-06T06:18:37;101325.03;;;23.02;98.11
23679;BME280;12016;51.668;6.874;2022-09-06T06:24:39;101327.44;;;23.04;98.65
23679;BME280;12016;51.668;6.874;2022-09-06T06:30:41;101327.97;;;23.11;98.97
23679;BME280;12016;51.668;6.874;2022-09-06T06:36:43;101329.78;;;23.18;98.41
23679;BME280;12016;51.668;6.874;2022-09-06T06:42:46;101333.53;;;23.40;96.03
23679;BME280;12016;51.668;6.874;2022-09-06T06:48:49;101316.13;;;23.04;98.72
23679;BME280;12016;51.668;6.874;2022-09-06T06:54:55;101316.94;;;23.29;97.46
23679;BME280;12016;51.668;6.874;2022-09-06T07:00:57;101314.66;;;23.49;95.25
23679;BME280;12016;51.668;6.874;2022-09-06T07:07:00;101296.81;;;23.74;93.64
23679;BME280;12016;51.668;6.874;2022-09-06T07:13:22;101294.50;;;23.94;92.02
23679;BME280;12016;51.668;6.874;2022-09-06T07:19:24;101293.22;;;24.07;91.22
23679;BME280;12016;51.668;6.874;2022-09-06T07:25:47;101300.41;;;24.21;90.77
23679;BME280;12016;51.668;6.874;2022-09-06T07:31:50;101299.22;;;24.31;90.57
23679;BME280;12016;51.668;6.874;2022-09-06T07:38:14;101297.19;;;24.32;90.45
23679;BME280;12016;51.668;6.874;2022-09-06T07:44:25;101294.94;;;24.48;90.41
23679;BME280;12016;51.668;6.874;2022-09-06T07:50:29;101295.13;;;24.54;90.01
23679;BME280;12016;51.668;6.874;2022-09-06T07:56:49;101289.38;;;24.66;89.37
23679;BME280;12016;51.668;6.874;2022-09-06T08:02:51;101277.34;;;24.75;84.95
23679;BME280;12016;51.668;6.874;2022-09-06T08:08:53;101279.59;;;24.89;83.84
23679;BME280;12016;51.668;6.874;2022-09-06T08:15:22;101271.94;;;24.98;82.09
23679;BME280;12016;51.668;6.874;2022-09-06T08:21:26;101274.16;;;25.03;81.90
23679;BME280;12016;51.668;6.874;2022-09-06T08:27:29;101278.94;;;25.24;78.74
23679;BME280;12016;51.668;6.874;2022-09-06T08:33:31;101273.22;;;25.46;75.85
23679;BME280;12016;51.668;6.874;2022-09-06T08:39:34;101274.94;;;25.62;73.92
23679;BME280;12016;51.668;6.874;2022-09-06T08:45:40;101265.03;;;25.75;71.13
23679;BME280;12016;51.668;6.874;2022-09-06T08:52:21;101257.94;;;25.98;68.39
23679;BME280;12016;51.668;6.874;2022-09-06T09:04:49;101244.06;;;26.36;64.16
23679;BME280;12016;51.668;6.874;2022-09-06T09:11:05;101243.69;;;26.61;63.01
23679;BME280;12016;51.668;6.874;2022-09-06T09:17:15;101233.38;;;26.73;58.71
23679;BME280;12016;51.668;6.874;2022-09-06T09:23:23;101238.06;;;26.85;58.87
23679;BME280;12016;51.668;6.874;2022-09-06T09:29:28;101233.94;;;26.86;58.26
23679;BME280;12016;51.668;6.874;2022-09-06T09:35:36;101229.53;;;27.17;58.70
23679;BME280;12016;51.668;6.874;2022-09-06T09:41:41;101219.94;;;27.38;57.69
23679;BME280;12016;51.668;6.874;2022-09-06T09:47:44;101213.31;;;27.56;57.65
23679;BME280;12016;51.668;6.874;2022-09-06T09:53:52;101205.75;;;27.76;56.56
23679;BME280;12016;51.668;6.874;2022-09-06T09:59:57;101200.59;;;27.89;56.69
23679;BME280;12016;51.668;6.874;2022-09-06T10:06:05;101190.59;;;28.23;56.30
23679;BME280;12016;51.668;6.874;2022-09-06T10:12:34;101186.06;;;28.46;55.36
23679;BME280;12016;51.668;6.874;2022-09-06T10:18:42;101181.13;;;28.75;54.01
23679;BME280;12016;51.668;6.874;2022-09-06T10:25:04;101184.00;;;29.10;52.93
23679;BME280;12016;51.668;6.874;2022-09-06T10:31:32;101173.88;;;29.49;51.80
23679;BME280;12016;51.668;6.874;2022-09-06T10:50:02;101165.69;;;30.65;49.84
23679;BME280;12016;51.668;6.874;2022-09-06T11:15:15;101145.44;;;46.00;27.15
23679;BME280;12016;51.668;6.874;2022-09-06T11:21:57;101151.75;;;47.40;22.70
23679;BME280;12016;51.668;6.874;2022-09-06T11:28:10;101155.91;;;49.93;21.66
23679;BME280;12016;51.668;6.874;2022-09-06T11:40:36;101168.72;;;52.36;19.22
23679;BME280;12016;51.668;6.874;2022-09-06T11:46:56;101170.34;;;51.50;17.92
23679;BME280;12016;51.668;6.874;2022-09-06T12:05:27;101156.06;;;50.75;18.45
23679;BME280;12016;51.668;6.874;2022-09-06T12:11:36;101147.88;;;53.49;17.55
23679;BME280;12016;51.668;6.874;2022-09-06T12:17:46;101147.00;;;55.17;16.71
23679;BME280;12016;51.668;6.874;2022-09-06T12:23:48;101127.75;;;49.90;20.46
23679;BME280;12016;51.668;6.874;2022-09-06T12:30:05;101126.78;;;53.59;17.27
23679;BME280;12016;51.668;6.874;2022-09-06T12:36:21;101130.38;;;53.38;17.43
23679;BME280;12016;51.668;6.874;2022-09-06T12:42:25;101122.19;;;53.91;17.94
23679;BME280;12016;51.668;6.874;2022-09-06T12:48:33;101119.56;;;53.99;16.87
23679;BME280;12016;51.668;6.874;2022-09-06T12:54:47;101112.44;;;51.29;18.65
23679;BME280;12016;51.668;6.874;2022-09-06T13:00:51;101106.50;;;48.22;20.71
23679;BME280;12016;51.668;6.874;2022-09-06T13:06:56;101102.78;;;43.65;24.09
23679;BME280;12016;51.668;6.874;2022-09-06T13:13:00;101093.38;;;41.73;26.12
23679;BME280;12016;51.668;6.874;2022-09-06T13:19:36;101094.06;;;39.96;28.24
23679;BME280;12016;51.668;6.874;2022-09-06T13:25:51;101085.84;;;38.86;29.07
23679;BME280;12016;51.668;6.874;2022-09-06T13:31:55;101089.16;;;37.79;29.89
23679;BME280;12016;51.668;6.874;2022-09-06T13:38:18;101080.59;;;36.36;31.96
23679;BME280;12016;51.668;6.874;2022-09-06T13:44:31;101079.31;;;36.63;31.64
23679;BME280;12016;51.668;6.874;2022-09-06T13:50:34;101078.41;;;36.68;31.01
23679;BME280;12016;51.668;6.874;2022-09-06T13:56:37;101075.09;;;36.51;31.16
23679;BME280;12016;51.668;6.874;2022-09-06T14:02:46;101065.94;;;35.71;32.50
23679;BME280;12016;51.668;6.874;2022-09-06T14:08:50;101062.81;;;35.69;32.64
23679;BME280;12016;51.668;6.874;2022-09-06T14:15:08;101057.06;;;35.31;33.19
23679;BME280;12016;51.668;6.874;2022-09-06T14:21:10;101063.94;;;34.86;34.52
23679;BME280;12016;51.668;6.874;2022-09-06T14:27:13;101048.19;;;34.92;33.49
23679;BME280;12016;51.668;6.874;2022-09-06T14:33:15;101043.13;;;34.74;33.53
23679;BME280;12016;51.668;6.874;2022-09-06T14:39:19;101042.25;;;35.03;32.97
23679;BME280;12016;51.668;6.874;2022-09-06T14:45:21;101031.94;;;36.01;32.34
23679;BME280;12016;51.668;6.874;2022-09-06T14:51:24;101044.16;;;35.57;31.00
23679;BME280;12016;51.668;6.874;2022-09-06T14:57:26;101035.22;;;35.04;30.84
23679;BME280;12016;51.668;6.874;2022-09-06T15:03:30;101026.56;;;35.04;31.44
23679;BME280;12016;51.668;6.874;2022-09-06T15:09:34;101029.34;;;34.91;31.67
23679;BME280;12016;51.668;6.874;2022-09-06T15:15:35;101021.81;;;34.64;32.51
23679;BME280;12016;51.668;6.874;2022-09-06T15:21:39;101014.78;;;34.36;32.67
23679;BME280;12016;51.668;6.874;2022-09-06T15:27:41;101007.06;;;33.95;32.22
23679;BME280;12016;51.668;6.874;2022-09-06T15:33:43;100997.00;;;33.83;33.38
23679;BME280;12016;51.668;6.874;2022-09-06T15:39:46;100989.91;;;34.14;32.44
23679;BME280;12016;51.668;6.874;2022-09-06T15:45:49;100985.94;;;34.47;32.61
23679;BME280;12016;51.668;6.874;2022-09-06T15:51:52;100979.19;;;34.63;31.60
23679;BME280;12016;51.668;6.874;2022-09-06T15:57:55;100974.69;;;34.67;31.63
23679;BME280;12016;51.668;6.874;2022-09-06T16:03:58;100972.03;;;34.51;31.56
23679;BME280;12016;51.668;6.874;2022-09-06T16:10:04;100960.81;;;34.47;31.49
23679;BME280;12016;51.668;6.874;2022-09-06T16:16:09;100964.03;;;34.38;30.60
23679;BME280;12016;51.668;6.874;2022-09-06T16:22:15;100962.47;;;34.37;30.78
23679;BME280;12016;51.668;6.874;2022-09-06T16:28:17;100962.31;;;34.29;31.20
23679;BME280;12016;51.668;6.874;2022-09-06T16:34:19;100956.38;;;34.22;30.96
23679;BME280;12016;51.668;6.874;2022-09-06T16:40:22;100958.19;;;34.01;31.15
23679;BME280;12016;51.668;6.874;2022-09-06T16:46:25;100952.44;;;34.01;31.69
23679;BME280;12016;51.668;6.874;2022-09-06T16:52:29;100957.47;;;33.95;31.95
23679;BME280;12016;51.668;6.874;2022-09-06T16:58:31;100958.13;;;33.77;32.18
23679;BME280;12016;51.668;6.874;2022-09-06T17:04:33;100962.75;;;33.56;32.30
23679;BME280;12016;51.668;6.874;2022-09-06T17:10:38;100950.13;;;33.29;33.39
23679;BME280;12016;51.668;6.874;2022-09-06T17:16:40;100959.94;;;33.10;33.77
23679;BME280;12016;51.668;6.874;2022-09-06T17:23:01;100954.31;;;32.82;34.77
23679;BME280;12016;51.668;6.874;2022-09-06T17:29:04;100959.13;;;32.57;34.87
23679;BME280;12016;51.668;6.874;2022-09-06T17:35:07;100950.34;;;32.33;35.28
23679;BME280;12016;51.668;6.874;2022-09-06T17:41:21;100958.47;;;32.13;37.15
23679;BME280;12016;51.668;6.874;2022-09-06T17:47:24;100958.53;;;31.91;36.46
23679;BME280;12016;51.668;6.874;2022-09-06T17:53:26;100962.16;;;31.69;37.23
23679;BME280;12016;51.668;6.874;2022-09-06T17:59:29;100973.09;;;31.48;38.12
23679;BME280;12016;51.668;6.874;2022-09-06T18:05:36;100973.56;;;31.30;38.42
23679;BME280;12016;51.668;6.874;2022-09-06T18:11:40;100978.19;;;31.06;39.26
23679;BME280;12016;51.668;6.874;2022-09-06T18:17:43;100970.09;;;30.88;40.00
23679;BME280;12016;51.668;6.874;2022-09-06T18:23:46;100974.38;;;30.61;40.42
23679;BME280;12016;51.668;6.874;2022-09-06T18:29:49;100964.44;;;30.45;41.11
23679;BME280;12016;51.668;6.874;2022-09-06T18:35:51;100971.00;;;30.20;41.66
23679;BME280;12016;51.668;6.874;2022-09-06T18:41:53;100961.06;;;30.05;41.22
23679;BME280;12016;51.668;6.874;2022-09-06T18:48:01;100958.09;;;29.88;42.44
23679;BME280;12016;51.668;6.874;2022-09-06T18:54:05;100959.78;;;29.69;43.15
23679;BME280;12016;51.668;6.874;2022-09-06T19:00:08;100954.66;;;29.53;44.10
23679;BME280;12016;51.668;6.874;2022-09-06T19:06:19;100959.16;;;29.34;46.02
23679;BME280;12016;51.668;6.874;2022-09-06T19:12:21;100958.97;;;29.12;46.50
23679;BME280;12016;51.668;6.874;2022-09-06T19:18:25;100959.75;;;28.92;46.71
23679;BME280;12016;51.668;6.874;2022-09-06T19:24:27;100955.88;;;28.70;46.60
23679;BME280;12016;51.668;6.874;2022-09-06T19:30:32;100950.59;;;28.63;46.66
23679;BME280;12016;51.668;6.874;2022-09-06T19:36:34;100938.06;;;28.55;46.83
23679;BME280;12016;51.668;6.874;2022-09-06T19:42:39;100935.31;;;28.46;47.82
23679;BME280;12016;51.668;6.874;2022-09-06T19:48:49;100924.22;;;28.28;50.06
23679;BME280;12016;51.668;6.874;2022-09-06T19:54:51;100910.41;;;28.21;49.36
23679;BME280;12016;51.668;6.874;2022-09-06T20:00:56;100911.53;;;28.09;49.66
23679;BME280;12016;51.668;6.874;2022-09-06T20:07:00;100906.13;;;27.76;50.11
23679;BME280;12016;51.668;6.874;2022-09-06T20:13:01;100897.13;;;27.63;50.62
23679;BME280;12016;51.668;6.874;2022-09-06T20:19:03;100905.56;;;27.57;50.70
23679;BME280;12016;51.668;6.874;2022-09-06T20:25:06;100897.94;;;27.49;50.74
23679;BME280;12016;51.668;6.874;2022-09-06T20:31:14;100883.63;;;27.43;51.62
23679;BME280;12016;51.668;6.874;2022-09-06T20:37:20;100869.72;;;27.31;52.70
23679;BME280;12016;51.668;6.874;2022-09-06T20:43:23;100868.53;;;27.23;53.21
23679;BME280;12016;51.668;6.874;2022-09-06T20:49:24;100860.59;;;27.12;53.65
23679;BME280;12016;51.668;6.874;2022-09-06T20:55:26;100866.28;;;26.98;55.08
23679;BME280;12016;51.668;6.874;2022-09-06T21:01:33;100869.41;;;26.85;54.08
23679;BME280;12016;51.668;6.874;2022-09-06T21:07:36;100863.25;;;26.72;52.93
23679;BME280;12016;51.668;6.874;2022-09-06T21:13:39;100852.63;;;26.20;52.49
23679;BME280;12016;51.668;6.874;2022-09-06T21:19:44;100883.25;;;25.00;57.04
23679;BME280;12016;51.668;6.874;2022-09-06T21:25:54;100909.25;;;24.62;58.23
23679;BME280;12016;51.668;6.874;2022-09-06T21:31:57;100908.97;;;24.69;56.45
23679;BME280;12016;51.668;6.874;2022-09-06T21:37:59;100919.25;;;25.26;56.05
23679;BME280;12016;51.668;6.874;2022-09-06T21:44:01;100918.19;;;25.66;53.73
23679;BME280;12016;51.668;6.874;2022-09-06T21:50:04;100923.78;;;25.84;53.70
23679;BME280;12016;51.668;6.874;2022-09-06T21:56:10;100893.38;;;25.84;52.85
23679;BME280;12016;51.668;6.874;2022-09-06T22:02:12;100874.25;;;25.85;52.59
23679;BME280;12016;51.668;6.874;2022-09-06T22:08:16;100865.00;;;26.08;52.82
23679;BME280;12016;51.668;6.874;2022-09-06T22:14:18;100864.69;;;26.29;52.83
23679;BME280;12016;51.668;6.874;2022-09-06T22:20:20;100857.84;;;26.36;52.44
23679;BME280;12016;51.668;6.874;2022-09-06T22:26:27;100819.19;;;26.53;51.78
23679;BME280;12016;51.668;6.874;2022-09-06T22:32:30;100809.09;;;26.52;52.58
23679;BME280;12016;51.668;6.874;2022-09-06T22:38:33;100805.19;;;26.49;53.10
23679;BME280;12016;51.668;6.874;2022-09-06T22:44:36;100816.06;;;26.51;53.18
23679;BME280;12016;51.668;6.874;2022-09-06T22:50:42;100810.28;;;26.60;52.78
23679;BME280;12016;51.668;6.874;2022-09-06T22:56:44;100788.53;;;26.57;52.93
23679;BME280;12016;51.668;6.874;2022-09-06T23:02:48;100784.84;;;26.80;51.96
23679;BME280;12016;51.668;6.874;2022-09-06T23:08:51;100786.69;;;26.98;52.21
23679;BME280;12016;51.668;6.874;2022-09-06T23:14:53;100777.16;;;27.15;51.31
23679;BME280;12016;51.668;6.874;2022-09-06T23:20:55;100800.47;;;27.19;51.47
23679;BME280;12016;51.668;6.874;2022-09-06T23:26:58;100807.72;;;27.20;51.80
23679;BME280;12016;51.668;6.874;2022-09-06T23:33:00;100811.06;;;27.19;53.22
23679;BME280;12016;51.668;6.874;2022-09-06T23:39:02;100821.09;;;27.14;56.91
23679;BME280;12016;51.668;6.874;2022-09-06T23:45:05;100888.28;;;26.59;63.48
23679;BME280;12016;51.668;6.874;2022-09-06T23:51:07;101002.66;;;25.62;73.96
23679;BME280;12016;51.668;6.874;2022-09-06T23:57:10;101040.38;;;23.62;93.54
